Not for real navigation | The accuracy of this data is not assured | See disclaimer for more information
ICAO NAME COUNTRY WIND Kt GUST Kt VIS TEMP/DEW BARO
RJAA New Tokyo Inter-National Airpo Japan 3 0 700 19/19 29.65
RJAA 261700Z 32003KT 0700 R16R/0650N R16L///// -SHRA FG FEW001 BKN002 19/19 Q1004 NOSIG
K7N0 3 0 800 23/22 29.94
K7N0 261705Z AUTO VRB03KT 0.5SM +TSRA FG FEW006 BKN018 OVC027 23/22 A2994 RMK AO2 LTG NOOP ALQDS P0031 RVRNO
KNRB MAYPORT NAVAL AIR FACILITY FL United States 23 29 800 23/22 29.93
KNRB 261652Z 06023G29KT 0.5SM +RA FG FEW004 BKN020 OVC030 23/22 A2993 RMK AO2 PK WND 08030/1627 SLP134 T2 SET P0058 T02280222
RCKH Kaohsiung International Airpor Taiwan 3 0 1000 26/25 29.80
RCKH 261705Z VRB03KT 1000 R09/P2000 VCTS -SHRA FEW002 BKN014 FEW015CB BKN028 26/25 Q1009 NOSIG RMK TS W MOV E A2980
CYYU Kapuskasing, Ont. Canada 10 16 1600 13/13 30.01
CYYU 261700Z 07010G16KT 1 0.5SM -RA BR BKN003 OVC004 13/13 A3001 RMK RA3SC2SC3 SLP170

Show more